Terminal Aerodrome Forecast
Issued by NWS

Home | Current Version | Previous Version | Text Only | Print | Product List | Glossary On
Versions: 1 2 3 4 5 6 7 8 9 10 11 12 13 14
000
FTUS43 KJKL 300520
TAFSJS
TAF
KSJS 300520Z 3006/3106 16003KT P6SM SCT250
      TEMPO 3010/3012 5SM BR
     FM301400 22008KT P6SM BKN040
     FM301800 24007KT 5SM -SHRA VCTS BKN050CB OVC120
     FM310000 VRB05KT P6SM VCTS BKN050CB BKN120=

USA.gov is the U.S. government's official web portal to all federal, state and local government web resources and services.